createdAt,value
2023-03-05T00:00:12.637Z,98979.97
2023-03-05T00:01:23.021Z,98985.72
2023-03-05T00:02:24.715Z,98983.13
2023-03-05T00:03:26.361Z,98978.75
2023-03-05T00:04:28.129Z,98981.94
2023-03-05T00:05:29.778Z,98985.34
2023-03-05T00:06:32.703Z,98980.09
2023-03-05T00:07:34.760Z,98975.63
2023-03-05T00:08:36.788Z,98971.19
2023-03-05T00:09:38.678Z,98980.66
2023-03-05T00:10:40.274Z,98971.19
2023-03-05T00:11:41.908Z,98969.34
2023-03-05T00:12:43.556Z,98977.03
2023-03-05T00:13:45.663Z,98977.22
2023-03-05T00:14:47.238Z,98964.91
2023-03-05T00:15:48.872Z,98964.16
2023-03-05T00:16:50.681Z,98963.38
2023-03-05T00:17:52.345Z,98962.66
2023-03-05T00:18:55.962Z,98964.31
2023-03-05T00:19:59.601Z,98965.25
2023-03-05T00:21:02.150Z,98964.50
2023-03-05T00:22:03.810Z,98964.41
2023-03-05T00:23:05.451Z,98957.63
2023-03-05T00:24:13.674Z,98961.81
2023-03-05T00:25:15.478Z,98959.88
2023-03-05T00:26:21.503Z,98960.72
2023-03-05T00:27:23.473Z,98964.69
2023-03-05T00:28:25.139Z,98953.44
2023-03-05T00:29:26.742Z,98956.88
2023-03-05T00:30:28.360Z,98958.47
2023-03-05T00:31:32.067Z,98959.22
2023-03-05T00:32:33.747Z,98958.28
2023-03-05T00:33:35.412Z,98953.91
2023-03-05T00:34:37.002Z,98958.38
2023-03-05T00:35:44.281Z,98955.78
2023-03-05T00:36:50.879Z,98948.09
2023-03-05T00:37:52.874Z,98954.97
2023-03-05T00:38:54.886Z,98950.78
2023-03-05T00:39:57.490Z,98951.59
2023-03-05T00:40:59.060Z,98945.50
2023-03-05T00:42:00.662Z,98944.56
2023-03-05T00:43:03.211Z,98943.53
2023-03-05T00:44:05.236Z,98943.53
2023-03-05T00:45:08.807Z,98940.84
2023-03-05T00:46:10.436Z,98945.03
2023-03-05T00:47:12.061Z,98944.47
2023-03-05T00:48:13.695Z,98945.19
2023-03-05T00:49:16.056Z,98938.34
2023-03-05T00:50:17.853Z,98937.59
2023-03-05T00:51:19.946Z,98937.78
2023-03-05T00:52:21.523Z,98931.84
2023-03-05T00:53:23.324Z,98930.25
2023-03-05T00:54:25.956Z,98923.31
2023-03-05T00:55:27.551Z,98926.72
2023-03-05T00:56:29.278Z,98925.13
2023-03-05T00:57:31.460Z,98926.81
2023-03-05T00:58:33.276Z,98924.97
2023-03-05T00:59:34.900Z,98919.69
2023-03-05T01:00:37.046Z,98926.47
2023-03-05T01:01:38.711Z,98917.75
2023-03-05T01:02:40.319Z,98918.59
2023-03-05T01:03:42.028Z,98909.94
2023-03-05T01:04:43.630Z,98916.81
2023-03-05T01:05:45.637Z,98916.06
2023-03-05T01:06:47.337Z,98907.53
2023-03-05T01:07:52.879Z,98901.59
2023-03-05T01:08:54.534Z,98900.84
2023-03-05T01:09:56.168Z,98896.41
2023-03-05T01:10:57.728Z,98898.34
2023-03-05T01:11:59.293Z,98893.97
2023-03-05T01:13:00.911Z,98892.41
2023-03-05T01:14:02.759Z,98899.47
2023-03-05T01:15:05.365Z,98896.00
2023-03-05T01:16:07.706Z,98899.47
2023-03-05T01:17:09.501Z,98896.75
2023-03-05T01:18:11.076Z,98903.34
2023-03-05T01:19:14.688Z,98903.78
2023-03-05T01:20:18.227Z,98904.72
2023-03-05T01:21:19.841Z,98909.50
2023-03-05T01:22:21.458Z,98916.06
2023-03-05T01:23:23.704Z,98902.41
2023-03-05T01:24:25.410Z,98910.44
2023-03-05T01:25:28.269Z,98908.22
2023-03-05T01:26:30.392Z,98894.50
2023-03-05T01:27:32.403Z,98896.66
2023-03-05T01:28:35.036Z,98904.00
2023-03-05T01:29:36.965Z,98892.31
2023-03-05T01:30:38.578Z,98894.84
2023-03-05T01:31:40.307Z,98890.22
2023-03-05T01:32:42.105Z,98896.19
2023-03-05T01:33:43.768Z,98896.00
2023-03-05T01:34:45.315Z,98896.81
2023-03-05T01:35:48.331Z,98896.50
2023-03-05T01:36:49.955Z,98895.59
2023-03-05T01:37:52.367Z,98890.13
2023-03-05T01:38:53.967Z,98890.78
2023-03-05T01:39:55.561Z,98899.25
2023-03-05T01:40:57.139Z,98895.63
2023-03-05T01:41:58.738Z,98899.06
2023-03-05T01:43:19.128Z,98893.75
2023-03-05T01:44:23.367Z,98898.31
2023-03-05T01:45:25.077Z,98898.31
2023-03-05T01:46:28.332Z,98896.66
2023-03-05T01:47:29.915Z,98901.44
2023-03-05T01:48:31.547Z,98891.88
2023-03-05T01:49:38.184Z,98897.25
2023-03-05T01:50:40.088Z,98903.75
2023-03-05T01:51:51.399Z,98894.53
2023-03-05T01:52:58.857Z,98898.41
2023-03-05T01:54:02.019Z,98899.69
2023-03-05T01:55:13.790Z,98905.53
2023-03-05T01:56:15.709Z,98908.03
2023-03-05T01:57:20.003Z,98899.59
2023-03-05T01:58:21.643Z,98903.19
2023-03-05T01:59:24.111Z,98899.34
2023-03-05T02:00:30.777Z,98907.56
2023-03-05T02:01:38.479Z,98911.00
2023-03-05T02:02:43.429Z,98906.22
2023-03-05T02:03:46.277Z,98897.44
2023-03-05T02:05:06.704Z,98902.88
2023-03-05T02:06:08.487Z,98900.19
2023-03-05T02:07:11.360Z,98902.53
2023-03-05T02:08:16.620Z,98904.88
2023-03-05T02:09:20.298Z,98899.94
2023-03-05T02:10:35.312Z,98905.88
2023-03-05T02:11:37.468Z,98890.97
2023-03-05T02:12:39.389Z,98896.81
2023-03-05T02:13:41.040Z,98899.31
2023-03-05T02:14:46.653Z,98900.09
2023-03-05T02:15:48.800Z,98900.75
2023-03-05T02:16:50.975Z,98900.50
2023-03-05T02:17:52.800Z,98891.53
2023-03-05T02:18:54.411Z,98894.63
2023-03-05T02:20:05.107Z,98895.38
2023-03-05T02:21:11.411Z,98896.03
2023-03-05T02:22:17.306Z,98895.88
2023-03-05T02:23:20.778Z,98894.09
2023-03-05T02:24:37.232Z,98895.09
2023-03-05T02:25:38.953Z,98897.75
2023-03-05T02:26:41.483Z,98889.47
2023-03-05T02:27:49.407Z,98893.69
2023-03-05T02:28:56.889Z,98892.69
2023-03-05T02:29:58.443Z,98899.28
2023-03-05T02:31:00.412Z,98891.25
2023-03-05T02:32:02.633Z,98895.34
2023-03-05T02:33:05.345Z,98889.16
2023-03-05T02:34:07.177Z,98893.44
2023-03-05T02:35:09.497Z,98891.44
2023-03-05T02:36:11.161Z,98893.00
2023-03-05T02:37:12.873Z,98889.75
2023-03-05T02:38:17.846Z,98892.06
2023-03-05T02:39:19.525Z,98895.69
2023-03-05T02:40:21.458Z,98892.34
2023-03-05T02:41:24.160Z,98890.09
2023-03-05T02:42:25.966Z,98894.09
2023-03-05T02:43:27.685Z,98895.03
2023-03-05T02:44:29.374Z,98890.84
2023-03-05T02:45:31.188Z,98891.44
2023-03-05T02:46:33.891Z,98898.19
2023-03-05T02:47:36.028Z,98889.22
2023-03-05T02:48:37.788Z,98891.00
2023-03-05T02:49:39.438Z,98888.31
2023-03-05T02:50:41.854Z,98885.72
2023-03-05T02:51:43.837Z,98887.31
2023-03-05T02:52:45.576Z,98882.13
2023-03-05T02:53:49.549Z,98890.50
2023-03-05T02:54:52.535Z,98888.72
2023-03-05T02:55:54.151Z,98884.72
2023-03-05T02:56:55.714Z,98891.56
2023-03-05T02:57:57.740Z,98893.59
2023-03-05T02:58:59.368Z,98889.66
2023-03-05T03:00:01.066Z,98895.69
2023-03-05T03:01:02.800Z,98897.13
2023-03-05T03:02:04.531Z,98886.56
2023-03-05T03:03:06.385Z,98888.78
2023-03-05T03:04:08.002Z,98888.72
2023-03-05T03:05:09.831Z,98884.38
2023-03-05T03:06:11.432Z,98889.81
2023-03-05T03:07:14.309Z,98891.66
2023-03-05T03:08:16.284Z,98887.38
2023-03-05T03:09:17.874Z,98887.38
2023-03-05T03:10:19.587Z,98884.88
2023-03-05T03:11:21.339Z,98879.78
2023-03-05T03:12:23.001Z,98888.97
2023-03-05T03:13:24.644Z,98887.97
2023-03-05T03:14:26.411Z,98880.13
2023-03-05T03:15:28.023Z,98880.84
2023-03-05T03:16:29.618Z,98873.75
2023-03-05T03:17:31.194Z,98873.44
2023-03-05T03:18:32.849Z,98866.44
2023-03-05T03:19:35.588Z,98864.00
2023-03-05T03:20:38.411Z,98864.84
2023-03-05T03:21:39.947Z,98867.53
2023-03-05T03:22:43.628Z,98871.78
2023-03-05T03:23:45.234Z,98860.59
2023-03-05T03:24:47.019Z,98872.72
2023-03-05T03:25:48.550Z,98864.09
2023-03-05T03:26:50.135Z,98865.84
2023-03-05T03:27:51.736Z,98851.28
2023-03-05T03:28:53.343Z,98846.94
2023-03-05T03:29:54.937Z,98852.81
2023-03-05T03:30:56.548Z,98852.63
2023-03-05T03:31:58.971Z,98858.00
2023-03-05T03:33:00.569Z,98851.28
2023-03-05T03:34:02.319Z,98846.94
2023-03-05T03:35:04.226Z,98854.81
2023-03-05T03:36:06.291Z,98850.66
2023-03-05T03:37:08.308Z,98857.84
2023-03-05T03:38:09.902Z,98851.25
2023-03-05T03:39:12.154Z,98858.09
2023-03-05T03:40:13.946Z,98854.75
2023-03-05T03:41:16.979Z,98839.28
2023-03-05T03:42:20.493Z,98835.78
2023-03-05T03:43:22.189Z,98842.78
2023-03-05T03:44:24.350Z,98841.13
2023-03-05T03:45:25.951Z,98843.38
2023-03-05T03:46:27.577Z,98835.34
2023-03-05T03:47:30.230Z,98840.59
2023-03-05T03:48:31.874Z,98840.97
2023-03-05T03:49:33.463Z,98836.97
2023-03-05T03:50:39.012Z,98839.72
2023-03-05T03:51:40.641Z,98833.50
2023-03-05T03:52:42.241Z,98843.16
2023-03-05T03:53:43.891Z,98835.88
2023-03-05T03:54:45.492Z,98834.13
2023-03-05T03:55:47.077Z,98823.75
2023-03-05T03:56:48.762Z,98824.69
2023-03-05T03:57:50.357Z,98824.69
2023-03-05T03:58:53.583Z,98828.53
2023-03-05T03:59:55.524Z,98820.19
2023-03-05T04:00:57.082Z,98822.53
2023-03-05T04:01:58.736Z,98814.75
2023-03-05T04:03:00.615Z,98811.06
2023-03-05T04:04:03.515Z,98813.03
2023-03-05T04:05:06.094Z,98816.00
2023-03-05T04:06:07.768Z,98817.91
2023-03-05T04:07:09.765Z,98812.91
2023-03-05T04:08:11.384Z,98810.25
2023-03-05T04:09:12.978Z,98812.75
2023-03-05T04:10:14.577Z,98811.75
2023-03-05T04:11:16.204Z,98803.22
2023-03-05T04:12:17.918Z,98807.56
2023-03-05T04:13:19.607Z,98801.88
2023-03-05T04:14:21.339Z,98797.78
2023-03-05T04:15:22.980Z,98793.28
2023-03-05T04:16:24.626Z,98795.09
2023-03-05T04:17:26.260Z,98801.88
2023-03-05T04:18:28.022Z,98798.59
2023-03-05T04:19:30.469Z,98799.63
2023-03-05T04:20:32.043Z,98795.28
2023-03-05T04:21:33.902Z,98795.09
2023-03-05T04:22:35.547Z,98790.00
2023-03-05T04:23:37.964Z,98796.03
2023-03-05T04:24:39.541Z,98798.59
2023-03-05T04:25:41.105Z,98802.22
2023-03-05T04:26:45.679Z,98799.72
2023-03-05T04:27:47.270Z,98791.50
2023-03-05T04:28:48.856Z,98788.84
2023-03-05T04:29:50.480Z,98796.69
2023-03-05T04:30:52.258Z,98786.94
2023-03-05T04:31:53.863Z,98794.78
2023-03-05T04:32:55.439Z,98797.19
2023-03-05T04:33:56.999Z,98794.34
2023-03-05T04:34:59.488Z,98795.94
2023-03-05T04:36:01.155Z,98789.91
2023-03-05T04:37:02.742Z,98792.00
2023-03-05T04:38:04.500Z,98798.22
2023-03-05T04:39:06.104Z,98800.47
2023-03-05T04:40:08.276Z,98798.41
2023-03-05T04:41:09.880Z,98796.78
2023-03-05T04:42:11.581Z,98803.06
2023-03-05T04:43:13.204Z,98796.88
2023-03-05T04:44:15.044Z,98794.28
2023-03-05T04:45:16.888Z,98790.75
2023-03-05T04:46:18.486Z,98789.84
2023-03-05T04:47:20.089Z,98792.13
2023-03-05T04:48:21.666Z,98793.34
2023-03-05T04:49:23.279Z,98791.50
2023-03-05T04:50:24.910Z,98793.34
2023-03-05T04:51:26.535Z,98796.03
2023-03-05T04:52:28.156Z,98796.03
2023-03-05T04:53:29.773Z,98790.03
2023-03-05T04:54:31.380Z,98793.59
2023-03-05T04:55:33.032Z,98798.97
2023-03-05T04:56:34.667Z,98793.09
2023-03-05T04:57:36.656Z,98794.19
2023-03-05T04:58:38.233Z,98793.53
2023-03-05T04:59:39.953Z,98795.31
2023-03-05T05:00:41.589Z,98788.16
2023-03-05T05:01:43.246Z,98793.03
2023-03-05T05:02:47.287Z,98787.69
2023-03-05T05:03:48.902Z,98787.59
2023-03-05T05:04:53.827Z,98787.25
2023-03-05T05:05:57.032Z,98784.75
2023-03-05T05:06:59.189Z,98785.75
2023-03-05T05:08:00.857Z,98784.84
2023-03-05T05:09:02.655Z,98786.50
2023-03-05T05:10:04.846Z,98792.53
2023-03-05T05:11:08.092Z,98784.84
2023-03-05T05:12:09.947Z,98789.84
2023-03-05T05:13:11.806Z,98789.03
2023-03-05T05:14:13.602Z,98786.25
2023-03-05T05:15:15.387Z,98783.66
2023-03-05T05:16:16.996Z,98782.06
2023-03-05T05:17:18.648Z,98783.75
2023-03-05T05:18:20.991Z,98776.72
2023-03-05T05:19:22.760Z,98785.09
2023-03-05T05:20:24.429Z,98782.31
2023-03-05T05:21:26.149Z,98781.63
2023-03-05T05:22:29.199Z,98786.81
2023-03-05T05:23:30.794Z,98790.25
2023-03-05T05:24:32.376Z,98786.50
2023-03-05T05:25:34.032Z,98785.41
2023-03-05T05:26:35.744Z,98792.34
2023-03-05T05:27:39.466Z,98788.72
2023-03-05T05:28:42.994Z,98791.19
2023-03-05T05:29:44.784Z,98789.50
2023-03-05T05:30:46.356Z,98792.09
2023-03-05T05:31:47.942Z,98792.25
2023-03-05T05:32:49.567Z,98788.25
2023-03-05T05:33:51.174Z,98791.88
2023-03-05T05:34:57.220Z,98792.94
2023-03-05T05:35:58.832Z,98801.88
2023-03-05T05:37:00.690Z,98796.63
2023-03-05T05:38:02.405Z,98793.03
2023-03-05T05:39:04.483Z,98793.03
2023-03-05T05:40:06.816Z,98787.00
2023-03-05T05:41:14.573Z,98794.09
2023-03-05T05:42:18.255Z,98795.88
2023-03-05T05:43:19.840Z,98792.13
2023-03-05T05:44:21.533Z,98799.78
2023-03-05T05:45:23.196Z,98798.13
2023-03-05T05:46:26.105Z,98798.97
2023-03-05T05:47:27.713Z,98797.78
2023-03-05T05:48:30.715Z,98804.47
2023-03-05T05:49:32.307Z,98808.06
2023-03-05T05:50:33.891Z,98814.09
2023-03-05T05:51:35.490Z,98815.09
2023-03-05T05:52:37.136Z,98821.94
2023-03-05T05:53:38.829Z,98823.03
2023-03-05T05:54:40.489Z,98827.47
2023-03-05T05:55:42.066Z,98824.22
2023-03-05T05:56:43.644Z,98820.63
2023-03-05T05:57:45.285Z,98811.81
2023-03-05T05:58:48.087Z,98802.72
2023-03-05T05:59:49.696Z,98807.16
2023-03-05T06:00:51.296Z,98799.41
2023-03-05T06:01:52.913Z,98801.06
2023-03-05T06:02:54.580Z,98796.94
2023-03-05T06:03:56.916Z,98802.81
2023-03-05T06:05:00.007Z,98799.88
2023-03-05T06:06:01.836Z,98803.72
2023-03-05T06:07:03.947Z,98800.78
2023-03-05T06:08:05.539Z,98802.47
2023-03-05T06:09:07.183Z,98798.03
2023-03-05T06:10:10.258Z,98802.97
2023-03-05T06:11:12.218Z,98799.53
2023-03-05T06:12:13.765Z,98805.38
2023-03-05T06:13:15.367Z,98807.13
2023-03-05T06:14:17.171Z,98795.75
2023-03-05T06:15:18.902Z,98789.56
2023-03-05T06:16:22.898Z,98792.78
2023-03-05T06:17:30.328Z,98788.72
2023-03-05T06:18:34.093Z,98797.78
2023-03-05T06:19:35.718Z,98793.09
2023-03-05T06:20:37.293Z,98792.44
2023-03-05T06:21:39.787Z,98793.34
2023-03-05T06:22:41.463Z,98790.84
2023-03-05T06:23:43.919Z,98787.25
2023-03-05T06:24:45.501Z,98788.25
2023-03-05T06:25:47.087Z,98787.25
2023-03-05T06:26:48.742Z,98784.56
2023-03-05T06:27:50.340Z,98782.25
2023-03-05T06:28:52.681Z,98785.75
2023-03-05T06:29:54.882Z,98783.97
2023-03-05T06:31:01.685Z,98782.00
2023-03-05T06:32:04.376Z,98784.84
2023-03-05T06:33:05.951Z,98778.97
2023-03-05T06:34:07.626Z,98779.72
2023-03-05T06:35:09.380Z,98781.81
2023-03-05T06:36:14.271Z,98777.31
2023-03-05T06:37:15.854Z,98767.63
2023-03-05T06:38:17.519Z,98772.69
2023-03-05T06:39:19.073Z,98772.69
2023-03-05T06:40:20.645Z,98770.88
2023-03-05T06:41:26.023Z,98769.03
2023-03-05T06:42:27.606Z,98772.38
2023-03-05T06:43:29.164Z,98768.78
2023-03-05T06:44:30.757Z,98769.28
2023-03-05T06:45:32.405Z,98768.16
2023-03-05T06:46:36.098Z,98769.78
2023-03-05T06:47:37.695Z,98768.16
2023-03-05T06:48:39.383Z,98770.94
2023-03-05T06:49:41.000Z,98767.50
2023-03-05T06:50:42.731Z,98766.44
2023-03-05T06:51:44.333Z,98762.56
2023-03-05T06:52:49.386Z,98763.41
2023-03-05T06:53:52.060Z,98764.97
2023-03-05T06:54:53.634Z,98769.25
2023-03-05T06:55:55.539Z,98767.47
2023-03-05T06:56:57.448Z,98764.06
2023-03-05T06:57:59.056Z,98765.75
2023-03-05T06:59:00.703Z,98753.78
2023-03-05T07:00:03.841Z,98762.28
2023-03-05T07:01:06.927Z,98760.28
2023-03-05T07:02:11.361Z,98761.84
2023-03-05T07:03:13.340Z,98774.75
2023-03-05T07:04:15.739Z,98762.72
2023-03-05T07:05:17.310Z,98762.53
2023-03-05T07:06:20.713Z,98757.50
2023-03-05T07:07:22.329Z,98759.03
2023-03-05T07:08:24.005Z,98756.69
2023-03-05T07:09:25.598Z,98754.88
2023-03-05T07:10:27.194Z,98746.81
2023-03-05T07:11:29.527Z,98747.47
2023-03-05T07:12:31.273Z,98754.94
2023-03-05T07:13:32.912Z,98752.50
2023-03-05T07:14:34.541Z,98752.50
2023-03-05T07:15:39.372Z,98763.53
2023-03-05T07:16:41.007Z,98759.69
2023-03-05T07:17:42.614Z,98754.69
2023-03-05T07:18:45.018Z,98754.53
2023-03-05T07:19:46.658Z,98751.19
2023-03-05T07:20:48.243Z,98751.84
2023-03-05T07:21:49.864Z,98752.78
2023-03-05T07:22:51.491Z,98749.41
2023-03-05T07:23:58.231Z,98753.59
2023-03-05T07:24:59.821Z,98753.25
2023-03-05T07:26:02.935Z,98749.81
2023-03-05T07:27:04.546Z,98751.59
2023-03-05T07:28:06.648Z,98743.16
2023-03-05T07:29:08.375Z,98743.53
2023-03-05T07:30:10.672Z,98751.97
2023-03-05T07:31:14.513Z,98754.00
2023-03-05T07:32:16.129Z,98756.41
2023-03-05T07:33:17.793Z,98747.44
2023-03-05T07:34:19.729Z,98742.44
2023-03-05T07:35:21.379Z,98740.38
2023-03-05T07:36:23.834Z,98738.69
2023-03-05T07:37:25.418Z,98738.63
2023-03-05T07:38:27.993Z,98743.16
2023-03-05T07:39:29.575Z,98739.97
2023-03-05T07:40:31.197Z,98737.56
2023-03-05T07:41:32.879Z,98737.06
2023-03-05T07:42:34.697Z,98735.66
2023-03-05T07:43:49.121Z,98731.47
2023-03-05T07:44:50.826Z,98729.53
2023-03-05T07:45:52.707Z,98736.13
2023-03-05T07:46:54.401Z,98730.63
2023-03-05T07:47:55.999Z,98727.84
2023-03-05T07:48:58.024Z,98723.41
2023-03-05T07:49:59.645Z,98722.59
2023-03-05T07:51:10.994Z,98728.50
2023-03-05T07:52:12.551Z,98722.41
2023-03-05T07:53:14.763Z,98720.47
2023-03-05T07:54:16.430Z,98724.47
2023-03-05T07:55:18.037Z,98723.06
2023-03-05T07:56:29.029Z,98712.97
2023-03-05T07:57:30.710Z,98721.28
2023-03-05T07:58:32.788Z,98722.22
2023-03-05T07:59:35.050Z,98710.19
2023-03-05T08:00:36.681Z,98721.28
2023-03-05T08:01:38.592Z,98719.53
2023-03-05T08:02:40.283Z,98716.84
2023-03-05T08:03:43.426Z,98720.28
2023-03-05T08:04:45.073Z,98716.97
2023-03-05T08:05:46.656Z,98717.88
2023-03-05T08:06:48.358Z,98713.50
2023-03-05T08:07:49.959Z,98713.63
2023-03-05T08:08:51.568Z,98711.03
2023-03-05T08:09:53.268Z,98714.25
2023-03-05T08:10:54.921Z,98709.00
2023-03-05T08:11:56.720Z,98707.50
2023-03-05T08:12:58.322Z,98710.84
2023-03-05T08:13:59.999Z,98714.25
2023-03-05T08:15:01.625Z,98702.88
2023-03-05T08:16:08.167Z,98711.50
2023-03-05T08:17:09.758Z,98701.13
2023-03-05T08:18:11.437Z,98708.72
2023-03-05T08:19:13.002Z,98706.03
2023-03-05T08:20:14.627Z,98706.03
2023-03-05T08:21:21.565Z,98705.13
2023-03-05T08:22:23.197Z,98703.09
2023-03-05T08:23:25.000Z,98702.34
2023-03-05T08:24:26.811Z,98700.75
2023-03-05T08:25:28.465Z,98702.06
2023-03-05T08:26:31.506Z,98694.19
2023-03-05T08:27:33.159Z,98699.00
2023-03-05T08:28:34.757Z,98702.34
2023-03-05T08:29:36.337Z,98698.81
2023-03-05T08:30:40.577Z,98693.38
2023-03-05T08:31:46.056Z,98698.28
2023-03-05T08:32:49.769Z,98704.41
2023-03-05T08:33:53.489Z,98701.81
2023-03-05T08:34:58.148Z,98700.97
2023-03-05T08:35:59.769Z,98705.88
2023-03-05T08:37:01.452Z,98704.09
2023-03-05T08:38:03.163Z,98704.88
2023-03-05T08:39:04.959Z,98702.28
2023-03-05T08:40:07.153Z,98701.25
2023-03-05T08:41:08.952Z,98698.56
2023-03-05T08:42:10.549Z,98698.66
2023-03-05T08:43:12.122Z,98701.16
2023-03-05T08:44:13.737Z,98709.03
2023-03-05T08:45:15.362Z,98703.19
2023-03-05T08:46:17.055Z,98706.53
2023-03-05T08:47:19.241Z,98703.75
2023-03-05T08:48:20.927Z,98707.28
2023-03-05T08:49:22.695Z,98704.03
2023-03-05T08:50:24.584Z,98702.09
2023-03-05T08:51:27.152Z,98697.66
2023-03-05T08:52:28.778Z,98695.13
2023-03-05T08:53:30.392Z,98696.97
2023-03-05T08:54:32.994Z,98697.91
2023-03-05T08:55:34.619Z,98694.50
2023-03-05T08:56:36.972Z,98696.16
2023-03-05T08:57:38.559Z,98691.78
2023-03-05T08:58:40.223Z,98693.84
2023-03-05T08:59:41.844Z,98692.91
2023-03-05T09:00:43.416Z,98693.00
2023-03-05T09:01:45.020Z,98687.00
2023-03-05T09:02:46.621Z,98690.22
2023-03-05T09:03:48.202Z,98689.94
2023-03-05T09:04:49.812Z,98692.09
2023-03-05T09:05:51.518Z,98686.06
2023-03-05T09:06:53.093Z,98692.84
2023-03-05T09:07:54.681Z,98688.19
2023-03-05T09:08:56.262Z,98691.38
2023-03-05T09:09:57.876Z,98696.81
2023-03-05T09:11:02.745Z,98691.44
2023-03-05T09:12:04.507Z,98691.44
2023-03-05T09:13:06.109Z,98691.38
2023-03-05T09:14:08.130Z,98692.91
2023-03-05T09:15:11.037Z,98685.78
2023-03-05T09:16:15.813Z,98696.16
2023-03-05T09:17:17.453Z,98693.50
2023-03-05T09:18:19.336Z,98687.25
2023-03-05T09:19:20.975Z,98687.91
2023-03-05T09:20:22.712Z,98687.19
2023-03-05T09:21:24.288Z,98685.44
2023-03-05T09:22:26.150Z,98679.84
2023-03-05T09:23:27.768Z,98700.53
2023-03-05T09:24:29.378Z,98683.19
2023-03-05T09:25:30.964Z,98695.50
2023-03-05T09:26:34.780Z,98692.81
2023-03-05T09:27:37.094Z,98687.63
2023-03-05T09:28:39.683Z,98690.03
2023-03-05T09:29:43.081Z,98690.69
2023-03-05T09:30:44.876Z,98692.00
2023-03-05T09:31:51.069Z,98684.81
2023-03-05T09:32:52.762Z,98693.06
2023-03-05T09:33:54.408Z,98688.78
2023-03-05T09:34:56.064Z,98694.84
2023-03-05T09:35:57.938Z,98691.50
2023-03-05T09:36:59.528Z,98688.19
2023-03-05T09:38:01.199Z,98688.72
2023-03-05T09:39:03.625Z,98689.16
2023-03-05T09:40:05.765Z,98694.81
2023-03-05T09:41:17.086Z,98692.41
2023-03-05T09:42:43.405Z,98694.59
2023-03-05T09:43:57.249Z,98684.66
2023-03-05T09:45:19.764Z,98691.63
2023-03-05T09:46:33.127Z,98694.25
2023-03-05T09:47:37.410Z,98700.25
2023-03-05T09:48:50.325Z,98692.66
2023-03-05T09:50:18.727Z,98694.59
2023-03-05T09:51:27.918Z,98694.72
2023-03-05T09:53:07.990Z,98691.00
2023-03-05T09:54:23.280Z,98691.16
2023-03-05T09:55:32.749Z,98697.81
2023-03-05T09:56:41.642Z,98696.59
2023-03-05T09:57:51.246Z,98694.91
2023-03-05T09:58:56.302Z,98699.31
2023-03-05T10:00:01.028Z,98691.59
2023-03-05T10:01:23.220Z,98698.06
2023-03-05T10:02:30.332Z,98693.69
2023-03-05T10:03:44.723Z,98686.63
2023-03-05T10:04:54.971Z,98686.75
2023-03-05T10:06:05.879Z,98685.59
2023-03-05T10:07:27.421Z,98688.22
2023-03-05T10:08:42.038Z,98690.66
2023-03-05T10:10:18.296Z,98685.91
2023-03-05T10:11:34.073Z,98689.16
2023-03-05T10:12:48.375Z,98685.59
2023-03-05T10:13:49.976Z,98693.94
2023-03-05T10:14:52.668Z,98677.91
2023-03-05T10:16:04.726Z,98682.94
2023-03-05T10:17:24.422Z,98680.91
2023-03-05T10:19:07.409Z,98684.16
2023-03-05T10:20:14.817Z,98684.31
2023-03-05T10:21:43.550Z,98688.19
2023-03-05T10:23:11.065Z,98686.19
2023-03-05T10:24:41.414Z,98684.97
2023-03-05T10:25:58.133Z,98683.31
2023-03-05T10:27:02.478Z,98674.28
2023-03-05T10:28:09.502Z,98667.34
2023-03-05T10:29:29.082Z,98671.75
2023-03-05T10:31:08.920Z,98676.69
2023-03-05T10:32:58.082Z,98674.81
2023-03-05T10:34:24.824Z,98663.50
2023-03-05T10:35:44.957Z,98674.72
2023-03-05T10:37:00.383Z,98678.38
2023-03-05T10:38:13.673Z,98666.78
2023-03-05T10:39:43.175Z,98668.00
2023-03-05T10:40:52.817Z,98670.41
2023-03-05T10:42:03.436Z,98665.41
2023-03-05T10:43:08.650Z,98667.25
2023-03-05T10:44:20.581Z,98665.59
2023-03-05T10:45:29.166Z,98669.75
2023-03-05T10:46:36.954Z,98664.84
2023-03-05T10:47:49.001Z,98664.41
2023-03-05T10:48:55.383Z,98669.06
2023-03-05T10:49:58.938Z,98660.88
2023-03-05T10:51:15.094Z,98658.09
2023-03-05T10:52:38.024Z,98661.97
2023-03-05T10:53:53.694Z,98660.22
2023-03-05T10:54:55.245Z,98660.22
2023-03-05T10:56:01.834Z,98658.41
2023-03-05T10:57:12.133Z,98654.03
2023-03-05T10:58:16.488Z,98659.94
2023-03-05T10:59:18.042Z,98659.31
2023-03-05T11:00:23.140Z,98669.88
2023-03-05T11:01:27.170Z,98661.56
2023-03-05T11:02:28.843Z,98660.44
2023-03-05T11:04:03.997Z,98657.47
2023-03-05T11:05:14.933Z,98658.69
2023-03-05T11:06:33.740Z,98659.16
2023-03-05T11:07:37.876Z,98666.84
2023-03-05T11:08:40.242Z,98656.56
2023-03-05T11:09:43.367Z,98661.75
2023-03-05T11:10:45.535Z,98658.03
2023-03-05T11:12:02.238Z,98659.69
2023-03-05T11:13:27.115Z,98651.19
2023-03-05T11:14:30.044Z,98653.56
2023-03-05T11:15:32.694Z,98655.63
2023-03-05T11:16:47.040Z,98657.19
2023-03-05T11:18:20.117Z,98649.22
2023-03-05T11:19:32.721Z,98651.19
2023-03-05T11:20:36.503Z,98648.19
2023-03-05T11:21:38.082Z,98641.69
2023-03-05T11:22:39.668Z,98650.00
2023-03-05T11:23:41.336Z,98634.63
2023-03-05T11:24:44.636Z,98646.78
2023-03-05T11:26:02.855Z,98639.31
2023-03-05T11:27:42.422Z,98630.50
2023-03-05T11:28:52.836Z,98636.63
2023-03-05T11:29:54.895Z,98637.09
2023-03-05T11:31:17.047Z,98634.63
2023-03-05T11:32:22.909Z,98631.09
2023-03-05T11:33:24.668Z,98636.50
2023-03-05T11:34:32.237Z,98637.22
2023-03-05T11:35:36.840Z,98628.41
2023-03-05T11:36:40.786Z,98636.28
2023-03-05T11:37:42.456Z,98636.94
2023-03-05T11:38:47.131Z,98638.91
2023-03-05T11:39:49.100Z,98633.13
2023-03-05T11:40:53.132Z,98636.56
2023-03-05T11:42:06.610Z,98631.94
2023-03-05T11:43:16.219Z,98638.50
2023-03-05T11:44:26.890Z,98634.09
2023-03-05T11:45:31.031Z,98633.47
2023-03-05T11:46:40.827Z,98628.91
2023-03-05T11:47:49.407Z,98633.88
2023-03-05T11:48:53.746Z,98633.16
2023-03-05T11:50:05.535Z,98620.88
2023-03-05T11:51:36.269Z,98613.91
2023-03-05T11:53:25.233Z,98601.44
2023-03-05T11:54:35.023Z,98605.09
2023-03-05T11:55:42.640Z,98600.72
2023-03-05T11:56:47.144Z,98601.16
2023-03-05T11:58:22.374Z,98606.03
2023-03-05T11:59:33.731Z,98604.78
2023-03-05T12:00:37.643Z,98604.06
2023-03-05T12:01:59.911Z,98599.59
2023-03-05T12:03:07.628Z,98594.25
2023-03-05T12:04:09.636Z,98596.53
2023-03-05T12:05:16.070Z,98593.63
2023-03-05T12:06:20.429Z,98599.78
2023-03-05T12:07:36.542Z,98596.84
2023-03-05T12:08:44.177Z,98598.84
2023-03-05T12:09:53.150Z,98603.09
2023-03-05T12:10:56.102Z,98603.94
2023-03-05T12:12:09.503Z,98608.75
2023-03-05T12:13:35.458Z,98600.00
2023-03-05T12:14:45.508Z,98606.44
2023-03-05T12:16:19.276Z,98603.63
2023-03-05T12:17:42.357Z,98604.47
2023-03-05T12:18:52.275Z,98601.66
2023-03-05T12:19:56.459Z,98604.28
2023-03-05T12:21:17.399Z,98604.97
2023-03-05T12:22:22.600Z,98601.88
2023-03-05T12:23:24.269Z,98599.78
2023-03-05T12:24:28.184Z,98600.72
2023-03-05T12:25:44.665Z,98606.34
2023-03-05T12:26:54.947Z,98600.19
2023-03-05T12:27:56.600Z,98605.59
2023-03-05T12:28:58.441Z,98604.13
2023-03-05T12:30:00.251Z,98596.84
2023-03-05T12:31:03.114Z,98601.41
2023-03-05T12:32:26.238Z,98601.31
2023-03-05T12:33:34.022Z,98598.00
2023-03-05T12:34:41.845Z,98602.25
2023-03-05T12:35:44.053Z,98592.69
2023-03-05T12:36:46.441Z,98600.78
2023-03-05T12:37:51.117Z,98592.75